Time;durP1;ratioP1;P1;durP2;ratioP2;P2;SDS_P1;SDS_P2;PMS_P1;PMS_P2;Temp;Humidity;BMP_temperature;BMP_pressure;BME280_temperature;BME280_humidity;BME280_pressure;Samples;Min_cycle;Max_cycle;Signal;HPM_P1;HPM_P2
2022/01/08 00:02:13;;;;;;;27.50;16.15;;;0.80;99.90;;;;;;5040243;28;20182;-94
2022/01/08 00:04:39;;;;;;;35.33;19.53;;;0.80;99.90;;;;;;5048604;28;20212;-94
2022/01/08 00:07:04;;;;;;;37.25;21.63;;;0.80;99.90;;;;;;5036716;28;20473;-92
2022/01/08 00:09:30;;;;;;;40.17;22.67;;;0.80;99.90;;;;;;5036427;28;20178;-93
2022/01/08 00:11:56;;;;;;;48.40;25.43;;;0.80;99.90;;;;;;5036619;28;20213;-94
2022/01/08 00:14:24;;;;;;;37.50;20.33;;;0.90;99.90;;;;;;5040713;28;20403;-93
2022/01/08 00:16:51;;;;;;;31.77;19.27;;;0.90;99.90;;;;;;5036691;28;20473;-93
2022/01/08 00:19:17;;;;;;;48.67;26.05;;;0.90;99.90;;;;;;5037429;28;20170;-94
2022/01/08 00:21:43;;;;;;;39.33;21.92;;;0.90;99.90;;;;;;5039282;28;20209;-92
2022/01/08 00:24:09;;;;;;;36.37;21.60;;;0.90;99.90;;;;;;5037864;28;20175;-93
2022/01/08 00:26:36;;;;;;;44.58;23.95;;;0.90;99.90;;;;;;5052715;28;20226;-94
2022/01/08 00:29:02;;;;;;;49.35;25.15;;;0.90;99.90;;;;;;5043390;28;20173;-95
2022/01/08 00:31:28;;;;;;;41.78;22.40;;;0.90;99.90;;;;;;5036830;28;20663;-93
2022/01/08 00:33:53;;;;;;;33.23;19.97;;;0.90;99.90;;;;;;5040919;28;20177;-93
2022/01/08 00:36:19;;;;;;;28.77;18.23;;;0.90;99.90;;;;;;5042925;28;20482;-92
2022/01/08 00:38:45;;;;;;;44.80;23.53;;;0.90;99.90;;;;;;5053183;28;20452;-94
2022/01/08 00:41:11;;;;;;;54.60;26.47;;;0.90;99.90;;;;;;5040021;28;20596;-93
2022/01/08 00:43:37;;;;;;;48.27;25.83;;;0.90;99.90;;;;;;5044528;28;20178;-94
2022/01/08 00:46:04;;;;;;;63.10;31.00;;;0.90;99.90;;;;;;5039835;28;20205;-93
2022/01/08 00:48:30;;;;;;;51.17;25.85;;;0.90;99.90;;;;;;5039405;28;20187;-93
2022/01/08 00:50:56;;;;;;;66.50;32.28;;;0.90;99.90;;;;;;5046694;28;20214;-94
2022/01/08 00:53:21;;;;;;;35.47;20.30;;;0.90;99.90;;;;;;5051205;28;20172;-94
2022/01/08 00:55:47;;;;;;;31.67;18.13;;;1.00;99.90;;;;;;5042114;28;20470;-93
2022/01/08 00:58:13;;;;;;;32.88;20.02;;;1.00;99.90;;;;;;5049242;28;20174;-93
2022/01/08 01:00:41;;;;;;;48.55;23.35;;;1.00;99.90;;;;;;5040992;28;20210;-93
2022/01/08 01:03:08;;;;;;;63.60;28.67;;;1.00;99.90;;;;;;5044393;28;20200;-93
2022/01/08 01:05:34;;;;;;;46.58;24.25;;;1.00;99.90;;;;;;5054260;28;20200;-93
2022/01/08 01:07:59;;;;;;;44.53;23.65;;;1.00;99.90;;;;;;5052876;28;20666;-95
2022/01/08 01:10:25;;;;;;;36.93;20.63;;;1.00;99.90;;;;;;5039270;28;20240;-95
2022/01/08 01:12:51;;;;;;;48.40;24.80;;;1.00;99.90;;;;;;5046060;28;20946;-94
2022/01/08 01:15:17;;;;;;;56.83;29.73;;;1.00;99.90;;;;;;5039562;28;20516;-94
2022/01/08 01:17:45;;;;;;;38.80;23.63;;;1.00;99.90;;;;;;5039016;28;20609;-93
2022/01/08 01:20:13;;;;;;;41.63;23.30;;;1.10;99.90;;;;;;5039206;28;20209;-93
2022/01/08 01:23:08;;;;;;;48.80;26.58;;;1.10;99.90;;;;;;5039111;28;20178;-94
2022/01/08 01:25:33;;;;;;;54.50;29.55;;;1.00;99.90;;;;;;5056561;28;20685;-94
2022/01/08 01:28:07;;;;;;;46.40;24.55;;;1.00;99.90;;;;;;5045982;28;20657;-94
2022/01/08 01:31:02;;;;;;;38.90;23.52;;;1.00;99.90;;;;;;5039239;28;20292;-93
2022/01/08 01:47:14;;;;;;;25.27;17.63;;;1.00;99.90;;;;;;5057134;28;20168;-94
2022/01/08 01:49:43;;;;;;;26.80;17.13;;;1.00;99.90;;;;;;5038456;28;20185;-94
2022/01/08 01:52:14;;;;;;;27.48;17.35;;;1.00;99.90;;;;;;5040605;28;20547;-93
2022/01/08 01:54:41;;;;;;;25.98;17.10;;;1.00;99.90;;;;;;5054981;28;20210;-92
2022/01/08 01:57:09;;;;;;;26.42;17.52;;;1.00;99.90;;;;;;5041189;28;20222;-93
2022/01/08 01:59:36;;;;;;;25.90;18.35;;;1.00;99.90;;;;;;5038232;28;20178;-95
2022/01/08 02:02:04;;;;;;;28.05;17.33;;;1.00;99.90;;;;;;5038376;28;20182;-94
2022/01/08 02:04:30;;;;;;;28.58;17.23;;;1.00;99.90;;;;;;5038400;28;20327;-94
2022/01/08 02:06:56;;;;;;;28.97;19.13;;;1.00;99.90;;;;;;5038459;28;20316;-94
2022/01/08 02:09:22;;;;;;;31.30;18.80;;;1.00;99.90;;;;;;5050576;28;20879;-93
2022/01/08 02:12:04;;;;;;;33.10;20.20;;;1.00;99.90;;;;;;5040025;28;21114;-94
2022/01/08 02:14:33;;;;;;;31.05;19.13;;;1.10;99.90;;;;;;5038827;28;20227;-93
2022/01/08 02:16:59;;;;;;;37.28;19.05;;;1.10;99.90;;;;;;5045603;28;20677;-94
2022/01/08 02:19:25;;;;;;;27.52;18.52;;;1.10;99.90;;;;;;5037993;28;20176;-94
2022/01/08 02:21:54;;;;;;;32.67;19.25;;;1.10;99.90;;;;;;5038351;28;20182;-93
2022/01/08 02:24:21;;;;;;;32.88;21.10;;;1.10;99.90;;;;;;5052061;28;20184;-92
2022/01/08 02:26:54;;;;;;;33.80;21.05;;;1.10;99.90;;;;;;5058356;28;20273;-93
2022/01/08 02:29:21;;;;;;;45.78;25.10;;;1.20;99.90;;;;;;5025116;28;20545;-95
2022/01/08 02:32:04;;;;;;;38.33;23.00;;;1.20;99.90;;;;;;5017870;28;20232;-92
2022/01/08 02:34:30;;;;;;;37.72;20.52;;;1.20;99.90;;;;;;5018279;28;20286;-92
2022/01/08 02:36:58;;;;;;;31.55;18.45;;;1.20;99.90;;;;;;5023771;28;20210;-93
2022/01/08 02:39:24;;;;;;;26.50;18.17;;;1.20;99.90;;;;;;5018401;28;20266;-92
2022/01/08 02:41:55;;;;;;;39.90;21.10;;;1.20;99.90;;;;;;5032424;28;20174;-93
2022/01/08 02:44:23;;;;;;;42.72;24.17;;;1.20;99.90;;;;;;5019977;28;20179;-93
2022/01/08 02:46:49;;;;;;;46.50;23.73;;;1.20;99.90;;;;;;5017659;28;20236;-94
2022/01/08 02:49:15;;;;;;;37.97;22.40;;;1.20;99.90;;;;;;5017993;28;20182;-93
2022/01/08 02:51:42;;;;;;;31.40;19.40;;;1.20;99.90;;;;;;5017680;28;20634;-94
2022/01/08 02:54:10;;;;;;;40.92;22.33;;;1.20;99.90;;;;;;5018103;28;20178;-95
2022/01/08 02:56:43;;;;;;;44.33;26.23;;;1.20;99.90;;;;;;5034169;28;20222;-93
2022/01/08 02:59:09;;;;;;;36.92;21.08;;;1.20;99.90;;;;;;5022405;28;20631;-94
2022/01/08 03:01:35;;;;;;;31.45;18.50;;;1.30;99.90;;;;;;5024818;28;20202;-94
2022/01/08 03:04:02;;;;;;;33.10;19.25;;;1.20;99.90;;;;;;5017539;28;20631;-93
2022/01/08 03:06:28;;;;;;;29.17;18.95;;;1.20;99.90;;;;;;5034913;28;20238;-94
2022/01/08 03:08:54;;;;;;;30.50;17.93;;;1.30;99.90;;;;;;5017761;28;20177;-93
2022/01/08 03:11:19;;;;;;;31.43;18.50;;;1.30;99.90;;;;;;5021564;28;20443;-94
2022/01/08 03:13:45;;;;;;;32.70;18.63;;;1.30;99.90;;;;;;5017537;28;20417;-93
2022/01/08 03:16:11;;;;;;;28.40;16.98;;;1.30;99.90;;;;;;5017196;28;20241;-94
2022/01/08 03:18:38;;;;;;;27.50;18.33;;;1.30;99.90;;;;;;5017183;28;20182;-93
2022/01/08 03:21:14;;;;;;;28.65;17.98;;;1.40;99.90;;;;;;5017472;28;20450;-94
2022/01/08 03:23:47;;;;;;;26.17;17.38;;;1.40;99.90;;;;;;5027336;28;20644;-93
2022/01/08 03:26:15;;;;;;;30.80;18.45;;;1.40;99.90;;;;;;5025232;28;20190;-94
2022/01/08 03:28:43;;;;;;;34.88;20.85;;;1.40;99.90;;;;;;5018776;28;20185;-94
2022/01/08 03:31:10;;;;;;;42.88;25.02;;;1.40;99.90;;;;;;5021393;28;20306;-92
2022/01/08 03:33:36;;;;;;;37.13;20.70;;;1.40;99.90;;;;;;5018562;28;20189;-95
2022/01/08 03:36:03;;;;;;;34.60;19.52;;;1.40;99.90;;;;;;5035952;28;20226;-93
2022/01/08 03:38:30;;;;;;;25.38;17.65;;;1.30;99.90;;;;;;5030656;28;20187;-94
2022/01/08 03:41:45;;;;;;;29.40;18.38;;;1.40;99.90;;;;;;5016942;28;20225;-93
2022/01/08 03:44:11;;;;;;;31.73;19.25;;;1.40;99.90;;;;;;5016999;28;20179;-92
2022/01/08 03:46:38;;;;;;;97.05;45.40;;;1.40;99.90;;;;;;5016973;28;20210;-93
2022/01/08 03:51:31;;;;;;;32.92;21.65;;;1.40;99.90;;;;;;5034784;28;20206;-95
2022/01/08 03:53:58;;;;;;;31.55;19.15;;;1.40;99.90;;;;;;5023724;28;20268;-95
2022/01/08 03:56:25;;;;;;;32.78;20.65;;;1.40;99.90;;;;;;5018581;28;20228;-92
2022/01/08 03:58:51;;;;;;;30.80;18.52;;;1.40;99.90;;;;;;5017012;28;20182;-92
2022/01/08 04:01:17;;;;;;;28.70;19.33;;;1.40;99.90;;;;;;5016907;28;20690;-94
2022/01/08 04:03:42;;;;;;;28.73;19.30;;;1.40;99.90;;;;;;5020173;28;20416;-94
2022/01/08 04:06:08;;;;;;;37.43;22.53;;;1.40;99.90;;;;;;5024108;28;20502;-93
2022/01/08 04:08:34;;;;;;;29.30;19.67;;;1.40;99.90;;;;;;5020891;28;20772;-94
2022/01/08 04:11:01;;;;;;;34.65;21.33;;;1.50;99.90;;;;;;5024981;28;20441;-94
2022/01/08 04:13:31;;;;;;;33.45;19.38;;;1.50;99.90;;;;;;5038697;28;20738;-94
2022/01/08 04:16:10;;;;;;;31.20;19.13;;;1.50;99.90;;;;;;5020725;28;20236;-93
2022/01/08 04:18:39;;;;;;;30.98;20.38;;;1.40;99.90;;;;;;5020548;28;20171;-93
2022/01/08 04:23:35;;;;;;;26.40;17.52;;;1.40;99.90;;;;;;5038196;28;20269;-94
2022/01/08 04:26:01;;;;;;;30.10;18.20;;;1.50;99.90;;;;;;5023884;28;20198;-92
2022/01/08 04:28:30;;;;;;;27.67;18.30;;;1.50;99.90;;;;;;5023511;28;20185;-95
2022/01/08 04:30:56;;;;;;;27.55;17.70;;;1.50;99.90;;;;;;5027655;28;20212;-95
2022/01/08 04:33:22;;;;;;;25.67;17.67;;;1.50;99.90;;;;;;5020668;28;20178;-95
2022/01/08 04:35:47;;;;;;;29.07;18.37;;;1.50;99.90;;;;;;5020020;28;20525;-93
2022/01/08 04:38:13;;;;;;;32.23;19.03;;;1.50;99.90;;;;;;5020152;28;20467;-93
2022/01/08 04:40:40;;;;;;;28.63;18.37;;;1.50;99.90;;;;;;5028118;28;20293;-94
2022/01/08 04:43:06;;;;;;;34.00;20.77;;;1.50;99.90;;;;;;5028748;28;20178;-94
2022/01/08 04:45:32;;;;;;;31.38;17.75;;;1.50;99.90;;;;;;5019887;28;20207;-94
2022/01/08 04:47:59;;;;;;;26.67;18.53;;;1.50;99.90;;;;;;5020091;28;20181;-93
2022/01/08 04:50:27;;;;;;;38.00;21.60;;;1.50;99.90;;;;;;5020107;28;20476;-95
2022/01/08 04:52:53;;;;;;;30.00;20.50;;;1.40;99.90;;;;;;5020201;28;20171;-94
2022/01/08 04:55:19;;;;;;;24.05;18.17;;;1.40;99.90;;;;;;5032201;28;20202;-94
2022/01/08 04:57:45;;;;;;;27.88;18.00;;;1.40;99.90;;;;;;5036605;28;20214;-94
2022/01/08 05:00:11;;;;;;;29.10;18.77;;;1.40;99.90;;;;;;5032373;28;20315;-93
2022/01/08 05:02:37;;;;;;;30.33;20.65;;;1.50;99.90;;;;;;5026582;28;20915;-95
2022/01/08 05:05:03;;;;;;;36.63;21.35;;;1.50;99.90;;;;;;5023469;28;20264;-93
2022/01/08 05:07:29;;;;;;;27.90;17.63;;;1.40;99.90;;;;;;5019227;28;20230;-93
2022/01/08 05:09:55;;;;;;;26.83;17.43;;;1.50;99.90;;;;;;5022958;28;20206;-93
2022/01/08 05:12:21;;;;;;;33.77;20.87;;;1.50;99.90;;;;;;5020398;28;20193;-93
2022/01/08 05:14:47;;;;;;;32.73;18.63;;;1.50;99.90;;;;;;5019450;28;20272;-93
2022/01/08 05:17:14;;;;;;;30.95;19.65;;;1.50;99.90;;;;;;5030020;28;20210;-94
2022/01/08 05:19:50;;;;;;;32.85;19.55;;;1.50;99.90;;;;;;5024215;28;20238;-94
2022/01/08 05:22:31;;;;;;;30.45;18.92;;;1.50;99.90;;;;;;5019916;28;20188;-93
2022/01/08 05:24:57;;;;;;;27.52;16.85;;;1.50;99.90;;;;;;5026297;28;20198;-93
2022/01/08 05:27:24;;;;;;;26.15;18.45;;;1.50;99.90;;;;;;5019676;28;20179;-94
2022/01/08 05:29:51;;;;;;;27.70;18.00;;;1.50;99.90;;;;;;5019163;28;20305;-93
2022/01/08 05:32:18;;;;;;;31.30;18.73;;;1.50;99.90;;;;;;5020195;28;20624;-93
2022/01/08 05:34:46;;;;;;;29.15;19.48;;;1.50;99.90;;;;;;5035203;28;20226;-94
2022/01/08 05:37:12;;;;;;;32.22;17.88;;;1.50;99.90;;;;;;5019142;28;20305;-95
2022/01/08 05:39:39;;;;;;;34.30;19.60;;;1.50;99.90;;;;;;5023871;28;20191;-94
2022/01/08 05:42:06;;;;;;;32.03;18.95;;;1.50;99.90;;;;;;5024639;28;20185;-94
2022/01/08 05:44:33;;;;;;;27.00;17.95;;;1.50;99.90;;;;;;5018863;28;20179;-93
2022/01/08 05:46:59;;;;;;;32.85;18.70;;;1.50;99.90;;;;;;5018700;28;20187;-95
2022/01/08 05:49:25;;;;;;;30.13;18.70;;;1.50;99.90;;;;;;5018789;28;20170;-93
2022/01/08 05:51:51;;;;;;;34.23;18.80;;;1.40;99.90;;;;;;5019041;28;20201;-94
2022/01/08 05:54:17;;;;;;;26.42;17.70;;;1.50;99.90;;;;;;5027967;28;20430;-93
2022/01/08 05:56:43;;;;;;;28.77;17.77;;;1.40;99.90;;;;;;5032260;28;20226;-93
2022/01/08 05:59:09;;;;;;;27.05;16.48;;;1.40;99.90;;;;;;5022076;28;20190;-93
2022/01/08 06:01:35;;;;;;;29.43;18.77;;;1.50;99.90;;;;;;5018488;28;20206;-94
2022/01/08 06:04:01;;;;;;;27.60;18.63;;;1.40;99.90;;;;;;5018999;28;20899;-94
2022/01/08 06:06:28;;;;;;;28.52;17.85;;;1.40;99.90;;;;;;5018720;28;20475;-93
2022/01/08 06:08:53;;;;;;;26.50;16.90;;;1.40;99.90;;;;;;5038377;28;20209;-93
2022/01/08 06:11:19;;;;;;;28.60;17.90;;;1.40;99.90;;;;;;5022607;28;20664;-95
2022/01/08 06:13:45;;;;;;;30.20;17.45;;;1.40;99.90;;;;;;5018387;28;20423;-93
2022/01/08 06:16:11;;;;;;;26.10;16.60;;;1.40;99.90;;;;;;5018751;28;20222;-94
2022/01/08 06:18:39;;;;;;;25.60;16.40;;;1.40;99.90;;;;;;5024630;28;20201;-94
2022/01/08 06:21:05;;;;;;;28.15;16.65;;;1.40;99.90;;;;;;5018320;28;20948;-92
2022/01/08 06:23:31;;;;;;;26.55;17.35;;;1.40;99.90;;;;;;5029490;28;20181;-93
2022/01/08 06:25:58;;;;;;;25.65;16.60;;;1.40;99.90;;;;;;5030463;28;20206;-94
2022/01/08 06:28:23;;;;;;;27.30;16.50;;;1.40;99.90;;;;;;5029335;28;20647;-94
2022/01/08 06:30:49;;;;;;;31.33;17.40;;;1.40;99.90;;;;;;5018316;28;20210;-94
2022/01/08 06:33:17;;;;;;;24.47;16.43;;;1.40;99.90;;;;;;5018313;28;20387;-95
2022/01/08 06:35:44;;;;;;;26.52;16.63;;;1.40;99.90;;;;;;5018435;28;20429;-95
2022/01/08 06:38:10;;;;;;;26.75;16.33;;;1.40;99.90;;;;;;5018406;28;20543;-94
2022/01/08 06:40:36;;;;;;;28.13;17.00;;;1.40;99.90;;;;;;5021816;28;20211;-94
2022/01/08 06:43:02;;;;;;;27.20;16.53;;;1.40;99.90;;;;;;5019940;28;20423;-94
2022/01/08 06:45:29;;;;;;;27.88;15.77;;;1.40;99.90;;;;;;5018835;28;20452;-94
2022/01/08 06:47:55;;;;;;;25.13;16.05;;;1.30;99.90;;;;;;5018215;28;20565;-93
2022/01/08 06:50:21;;;;;;;24.58;16.52;;;1.40;99.90;;;;;;5018260;28;20616;-94
2022/01/08 06:52:47;;;;;;;28.20;17.35;;;1.40;99.90;;;;;;5030204;28;20188;-94
2022/01/08 06:55:13;;;;;;;22.98;15.15;;;1.40;99.90;;;;;;5022214;28;20297;-94
2022/01/08 06:57:39;;;;;;;31.08;17.38;;;1.40;99.90;;;;;;5025021;28;20256;-93
2022/01/08 07:00:05;;;;;;;29.77;17.30;;;1.40;99.90;;;;;;5024659;28;20207;-93
2022/01/08 07:02:31;;;;;;;24.00;15.05;;;1.40;99.90;;;;;;5023849;28;20880;-92
2022/01/08 07:04:57;;;;;;;28.67;17.37;;;1.40;99.90;;;;;;5022368;28;20241;-94
2022/01/08 07:07:23;;;;;;;28.63;17.20;;;1.40;99.90;;;;;;5019651;28;20545;-94
2022/01/08 07:09:49;;;;;;;26.35;17.02;;;1.40;99.90;;;;;;5017999;28;20962;-93
2022/01/08 07:12:15;;;;;;;26.65;16.88;;;1.40;99.90;;;;;;5017690;28;20273;-95
2022/01/08 07:14:41;;;;;;;26.55;16.48;;;1.30;99.90;;;;;;5020676;28;20202;-94
2022/01/08 07:17:07;;;;;;;29.80;17.03;;;1.30;99.90;;;;;;5018590;28;20236;-94
2022/01/08 07:19:33;;;;;;;28.87;18.63;;;1.30;99.90;;;;;;5020350;28;20945;-94
2022/01/08 07:22:00;;;;;;;28.48;18.40;;;1.30;99.90;;;;;;5018178;28;20514;-94
2022/01/08 07:24:26;;;;;;;28.42;17.10;;;1.30;99.90;;;;;;5019624;28;20671;-94
2022/01/08 07:26:52;;;;;;;28.33;17.17;;;1.30;99.90;;;;;;5024776;28;20179;-93
2022/01/08 07:29:18;;;;;;;31.83;18.87;;;1.30;99.90;;;;;;5020284;28;20186;-93
2022/01/08 07:31:44;;;;;;;29.07;18.50;;;1.30;99.90;;;;;;5017397;28;20448;-94
2022/01/08 07:34:09;;;;;;;26.20;16.50;;;1.30;99.90;;;;;;5020946;28;20174;-94
2022/01/08 07:36:35;;;;;;;25.40;17.00;;;1.30;99.90;;;;;;5004090;28;20229;-95
2022/01/08 07:39:01;;;;;;;29.87;19.40;;;1.30;99.90;;;;;;5018095;28;20418;-93
2022/01/08 07:41:27;;;;;;;27.93;18.30;;;1.30;99.90;;;;;;5017120;28;20447;-94
2022/01/08 07:43:54;;;;;;;35.83;18.43;;;1.30;99.90;;;;;;5018187;28;20174;-93
2022/01/08 07:46:22;;;;;;;28.65;18.38;;;1.30;99.90;;;;;;5020418;28;20210;-93
2022/01/08 07:48:48;;;;;;;32.45;19.70;;;1.40;99.90;;;;;;5028636;28;20189;-95
2022/01/08 07:51:14;;;;;;;30.77;18.52;;;1.40;99.90;;;;;;5017268;28;20293;-93
2022/01/08 07:53:40;;;;;;;31.40;19.53;;;1.40;99.90;;;;;;5026712;28;20246;-93
2022/01/08 07:56:06;;;;;;;33.23;20.20;;;1.40;99.90;;;;;;5023010;28;20479;-94
2022/01/08 07:58:32;;;;;;;27.08;18.20;;;1.40;99.90;;;;;;5016712;28;20520;-94
2022/01/08 08:00:58;;;;;;;33.80;19.13;;;1.50;99.90;;;;;;5017045;28;20222;-95
2022/01/08 08:03:24;;;;;;;28.25;19.85;;;1.50;99.90;;;;;;5023834;28;20186;-95
2022/01/08 08:05:50;;;;;;;31.47;20.83;;;1.50;99.90;;;;;;5017434;28;20210;-95
2022/01/08 08:08:20;;;;;;;27.35;19.25;;;1.50;99.90;;;;;;5016499;28;20807;-94
2022/01/08 08:10:48;;;;;;;30.27;18.80;;;1.40;99.90;;;;;;5022064;28;20210;-95
2022/01/08 08:13:18;;;;;;;28.40;19.10;;;1.40;99.90;;;;;;5027264;28;20635;-95
2022/01/08 08:15:44;;;;;;;33.00;19.17;;;1.50;99.90;;;;;;5017180;28;20210;-94
2022/01/08 08:18:11;;;;;;;31.80;20.48;;;1.50;99.90;;;;;;5023941;28;20286;-93
2022/01/08 08:20:37;;;;;;;28.75;18.90;;;1.50;99.90;;;;;;5019513;28;20207;-93
2022/01/08 08:23:03;;;;;;;32.90;20.70;;;1.50;99.90;;;;;;5031552;28;20170;-95
2022/01/08 08:25:29;;;;;;;26.70;18.52;;;1.50;99.90;;;;;;5020797;28;20290;-94
2022/01/08 08:27:55;;;;;;;29.43;19.10;;;1.50;99.90;;;;;;5016459;28;20585;-93
2022/01/08 08:30:21;;;;;;;33.38;20.10;;;1.50;99.90;;;;;;5016759;28;20206;-93
2022/01/08 08:32:47;;;;;;;40.83;22.63;;;1.50;99.90;;;;;;5016784;28;20175;-96
2022/01/08 08:35:13;;;;;;;33.72;20.13;;;1.50;99.90;;;;;;5021862;28;20463;-94
2022/01/08 08:37:40;;;;;;;37.08;22.33;;;1.60;99.90;;;;;;5016891;28;20237;-94
2022/01/08 08:40:08;;;;;;;30.88;20.08;;;1.50;99.90;;;;;;5016527;28;20258;-93
2022/01/08 08:42:34;;;;;;;38.65;21.67;;;1.50;99.90;;;;;;5016890;28;20190;-94
2022/01/08 08:45:00;;;;;;;31.42;19.23;;;1.50;99.90;;;;;;5022228;28;20363;-93
2022/01/08 08:47:26;;;;;;;34.13;21.73;;;1.50;99.90;;;;;;5032321;28;20239;-94
2022/01/08 08:49:52;;;;;;;41.05;25.05;;;1.50;99.90;;;;;;5023253;28;20214;-92
2022/01/08 08:52:18;;;;;;;45.80;24.70;;;1.60;99.90;;;;;;5022187;28;20194;-93
2022/01/08 08:54:44;;;;;;;36.20;24.55;;;1.60;99.90;;;;;;5020261;28;20501;-94
2022/01/08 08:57:10;;;;;;;39.23;24.30;;;1.60;99.90;;;;;;5031048;28;20218;-94
2022/01/08 08:59:37;;;;;;;42.40;25.00;;;1.60;99.90;;;;;;5022505;28;20416;-94
2022/01/08 09:02:05;;;;;;;37.20;21.85;;;1.60;99.90;;;;;;5020128;28;20594;-95
2022/01/08 09:04:31;;;;;;;36.15;21.45;;;1.60;99.90;;;;;;5025251;28;20275;-94
2022/01/08 09:06:57;;;;;;;36.38;21.75;;;1.60;99.90;;;;;;5025378;28;20305;-94
2022/01/08 09:09:24;;;;;;;31.08;22.00;;;1.60;99.90;;;;;;5047276;28;20181;-94
2022/01/08 09:11:50;;;;;;;32.55;20.95;;;1.60;99.90;;;;;;5029462;28;20186;-93
2022/01/08 09:14:16;;;;;;;34.03;23.03;;;1.60;99.90;;;;;;5029787;28;20638;-93
2022/01/08 09:16:48;;;;;;;31.38;21.10;;;1.60;99.90;;;;;;5019040;28;20446;-95
2022/01/08 09:19:15;;;;;;;35.92;21.98;;;1.60;99.90;;;;;;5020640;28;20186;-94
2022/01/08 09:21:41;;;;;;;33.55;21.00;;;1.60;99.90;;;;;;5026378;28;20195;-94
2022/01/08 09:24:08;;;;;;;33.90;22.13;;;1.60;99.90;;;;;;5019421;28;20221;-92
2022/01/08 09:26:34;;;;;;;38.97;23.88;;;1.60;99.90;;;;;;5019673;28;20209;-93
2022/01/08 09:29:00;;;;;;;36.00;22.38;;;1.60;99.90;;;;;;5019076;28;20273;-94
2022/01/08 09:31:25;;;;;;;46.73;23.47;;;1.60;99.90;;;;;;5019267;28;20308;-94
2022/01/08 09:33:51;;;;;;;41.93;25.20;;;1.60;99.90;;;;;;5022458;28;20510;-93
2022/01/08 09:36:17;;;;;;;39.07;26.47;;;1.60;99.90;;;;;;5019532;28;20547;-94
2022/01/08 09:38:43;;;;;;;43.10;26.53;;;1.60;99.90;;;;;;5019273;28;20404;-93
2022/01/08 09:41:09;;;;;;;46.63;28.23;;;1.70;99.90;;;;;;5028693;28;20440;-94
2022/01/08 09:43:36;;;;;;;47.10;27.60;;;1.70;99.90;;;;;;5019692;28;20839;-93
2022/01/08 09:46:02;;;;;;;37.50;22.90;;;1.70;99.90;;;;;;5019246;28;20989;-91
2022/01/08 09:48:28;;;;;;;44.17;27.65;;;1.70;99.90;;;;;;5024450;28;20189;-94
2022/01/08 09:50:54;;;;;;;57.63;38.53;;;1.70;99.90;;;;;;5019749;28;20202;-95
2022/01/08 09:53:21;;;;;;;44.78;25.58;;;1.70;99.90;;;;;;5027999;28;20167;-93
2022/01/08 09:55:47;;;;;;;38.72;25.20;;;1.70;99.90;;;;;;5028481;28;20207;-93
2022/01/08 09:58:13;;;;;;;40.15;28.48;;;1.70;99.90;;;;;;5020459;28;20186;-93
2022/01/08 10:00:39;;;;;;;38.17;26.23;;;1.70;99.90;;;;;;5018638;28;20321;-94
2022/01/08 10:03:20;;;;;;;32.17;21.92;;;1.70;99.90;;;;;;5022248;28;20416;-93
2022/01/08 10:05:56;;;;;;;38.25;22.13;;;1.70;99.90;;;;;;5018947;28;20206;-93
2022/01/08 10:08:30;;;;;;;34.22;22.33;;;1.70;99.90;;;;;;5019400;28;20581;-93
2022/01/08 10:11:02;;;;;;;38.25;23.15;;;1.70;99.90;;;;;;5026253;28;20198;-94
2022/01/08 10:13:32;;;;;;;39.10;23.38;;;1.80;99.90;;;;;;5018973;28;20181;-93
2022/01/08 10:18:45;;;;;;;34.90;23.75;;;1.80;99.90;;;;;;5040333;28;20202;-94
2022/01/08 10:21:26;;;;;;;32.65;23.42;;;1.80;99.90;;;;;;5020894;28;20234;-94
2022/01/08 10:23:54;;;;;;;37.72;24.10;;;1.80;99.90;;;;;;5027701;28;20713;-94
2022/01/08 10:26:23;;;;;;;37.15;25.88;;;1.80;99.90;;;;;;5018251;28;20198;-94
2022/01/08 10:28:58;;;;;;;38.85;24.10;;;1.80;99.90;;;;;;5018265;28;20253;-94
2022/01/08 10:31:29;;;;;;;36.70;22.80;;;1.80;99.90;;;;;;5018361;28;20292;-94
2022/01/08 10:34:12;;;;;;;36.50;22.35;;;1.80;99.90;;;;;;5025043;28;20163;-94
2022/01/08 10:36:58;;;;;;;49.13;29.17;;;1.80;99.90;;;;;;5018656;28;20320;-94
2022/01/08 10:39:27;;;;;;;41.30;25.40;;;1.80;99.90;;;;;;5018753;28;20670;-93
2022/01/08 10:41:54;;;;;;;35.20;22.58;;;1.80;99.90;;;;;;5018955;28;20206;-92
2022/01/08 10:44:21;;;;;;;42.80;25.15;;;1.80;99.90;;;;;;5019850;28;20694;-93
2022/01/08 10:46:57;;;;;;;41.95;25.10;;;1.80;99.90;;;;;;5018984;28;20708;-93
2022/01/08 10:49:41;;;;;;;38.05;25.15;;;1.80;99.90;;;;;;5021852;28;20186;-94
2022/01/08 10:52:13;;;;;;;35.63;24.52;;;1.90;99.90;;;;;;5021961;28;20185;-95
2022/01/08 10:54:59;;;;;;;44.13;27.27;;;1.90;99.90;;;;;;5021792;28;20190;-94
2022/01/08 10:57:39;;;;;;;40.78;24.42;;;1.90;99.90;;;;;;5025043;28;20218;-93
2022/01/08 11:00:11;;;;;;;40.60;25.85;;;1.90;99.90;;;;;;5023196;28;20651;-93
2022/01/08 11:02:38;;;;;;;42.35;27.90;;;1.90;99.90;;;;;;5007231;28;20186;-93
2022/01/08 11:05:09;;;;;;;43.97;28.15;;;1.90;99.90;;;;;;5018530;28;20667;-95
2022/01/08 11:07:36;;;;;;;36.53;25.08;;;1.90;99.90;;;;;;5025820;28;20234;-94
2022/01/08 11:10:07;;;;;;;36.95;23.90;;;1.90;99.90;;;;;;5017399;28;20284;-93
2022/01/08 11:12:37;;;;;;;40.30;26.75;;;1.90;99.90;;;;;;5017952;28;20301;-93
2022/01/08 11:17:43;;;;;;;39.72;25.00;;;2.00;99.90;;;;;;5034316;28;20666;-94
2022/01/08 11:20:13;;;;;;;36.63;23.85;;;2.00;99.90;;;;;;5023686;28;20190;-94
2022/01/08 11:22:44;;;;;;;38.92;28.48;;;2.00;99.90;;;;;;5018290;28;20192;-92
2022/01/08 11:25:13;;;;;;;38.22;24.80;;;2.00;99.90;;;;;;5017709;28;20226;-94
2022/01/08 11:27:58;;;;;;;44.13;26.85;;;2.00;99.90;;;;;;5017623;28;20182;-93
2022/01/08 11:30:45;;;;;;;45.78;29.52;;;2.00;99.90;;;;;;5022785;28;20198;-93
2022/01/08 11:33:26;;;;;;;56.17;30.70;;;2.00;99.90;;;;;;5019997;28;20579;-92
2022/01/08 11:35:57;;;;;;;48.75;31.33;;;2.00;99.90;;;;;;5017441;28;20237;-93
2022/01/08 11:38:26;;;;;;;42.72;28.10;;;2.00;99.90;;;;;;5019876;28;20170;-93
2022/01/08 11:40:54;;;;;;;49.28;31.95;;;1.90;99.90;;;;;;5017348;28;20213;-94
2022/01/08 11:43:21;;;;;;;46.17;28.13;;;1.90;99.90;;;;;;5037219;28;20179;-93
2022/01/08 11:45:55;;;;;;;50.03;30.45;;;1.90;99.90;;;;;;5024045;28;20241;-93
2022/01/08 11:48:30;;;;;;;55.67;33.78;;;1.90;99.90;;;;;;5017005;28;20213;-93
2022/01/08 11:50:58;;;;;;;67.28;43.45;;;1.90;99.90;;;;;;5017230;28;20194;-94
2022/01/08 11:53:24;;;;;;;90.35;58.25;;;1.90;99.90;;;;;;5020963;28;20182;-95
2022/01/08 11:55:56;;;;;;;67.20;43.00;;;1.90;99.90;;;;;;5017123;28;20212;-94
2022/01/08 11:58:31;;;;;;;61.58;36.70;;;2.00;99.90;;;;;;5017009;28;20227;-93
2022/01/08 12:01:01;;;;;;;55.55;37.90;;;2.00;99.90;;;;;;5016542;28;20205;-94
2022/01/08 12:03:39;;;;;;;73.35;49.15;;;2.00;99.90;;;;;;5017119;28;20187;-94
2022/01/08 12:06:28;;;;;;;61.38;37.78;;;2.00;99.90;;;;;;5020864;28;20230;-93
2022/01/08 12:09:16;;;;;;;54.85;32.70;;;2.00;99.90;;;;;;5016934;28;20171;-95
2022/01/08 12:11:42;;;;;;;51.55;32.10;;;2.10;99.90;;;;;;5016892;28;20210;-93
2022/01/08 12:14:13;;;;;;;49.23;32.73;;;2.10;99.90;;;;;;5017274;28;20694;-94
2022/01/08 12:16:43;;;;;;;46.70;30.95;;;2.10;99.90;;;;;;5019354;28;20226;-93
2022/01/08 12:19:27;;;;;;;48.40;31.33;;;2.10;99.90;;;;;;5016819;28;20174;-92
2022/01/08 12:21:53;;;;;;;49.50;32.30;;;2.10;99.90;;;;;;5016978;28;20209;-93
2022/01/08 12:24:28;;;;;;;53.30;33.63;;;2.20;99.90;;;;;;5017839;28;20249;-95
2022/01/08 12:26:55;;;;;;;49.17;32.45;;;2.20;99.90;;;;;;5025960;28;20477;-92
2022/01/08 12:29:34;;;;;;;54.72;33.60;;;2.20;99.90;;;;;;5035363;28;20179;-93
2022/01/08 12:32:25;;;;;;;52.90;32.90;;;2.20;99.90;;;;;;5026208;28;20186;-94
2022/01/08 12:35:00;;;;;;;44.03;30.95;;;2.20;99.90;;;;;;5020751;28;20294;-94
2022/01/08 12:37:36;;;;;;;49.65;33.97;;;2.20;99.90;;;;;;5020827;28;20253;-92
2022/01/08 12:40:03;;;;;;;53.50;34.05;;;2.20;99.90;;;;;;5025667;28;20293;-94
2022/01/08 12:42:29;;;;;;;49.00;33.08;;;2.20;99.90;;;;;;5026956;28;20174;-93
2022/01/08 12:45:15;;;;;;;44.80;31.20;;;2.20;99.90;;;;;;5043006;28;20226;-91
2022/01/08 12:47:53;;;;;;;54.38;34.65;;;2.20;99.90;;;;;;5023121;28;20432;-94
2022/01/08 12:50:22;;;;;;;53.10;33.58;;;2.20;99.90;;;;;;5020155;28;20710;-94
2022/01/08 12:53:06;;;;;;;53.03;32.63;;;2.20;99.90;;;;;;5021295;28;20224;-92
2022/01/08 12:56:08;;;;;;;50.55;33.03;;;2.20;99.90;;;;;;5020732;28;20726;-92
2022/01/08 12:58:45;;;;;;;56.78;37.08;;;2.20;99.90;;;;;;5019830;28;20240;-92
2022/01/08 13:01:16;;;;;;;53.80;33.55;;;2.20;99.90;;;;;;5019881;28;20206;-95
2022/01/08 13:03:45;;;;;;;51.08;34.28;;;2.20;99.90;;;;;;5020161;28;20178;-94
2022/01/08 13:06:13;;;;;;;72.65;47.28;;;2.20;99.90;;;;;;5027908;28;20242;-92
2022/01/08 13:08:42;;;;;;;65.60;40.75;;;2.20;99.90;;;;;;5024555;28;20170;-92